Time;durP1;ratioP1;P1;durP2;ratioP2;P2;SDS_P1;SDS_P2;PMS_P1;PMS_P2;Temp;Humidity;BMP_temperature;BMP_pressure;BME280_temperature;BME280_humidity;BME280_pressure;Samples;Min_cycle;Max_cycle;Signal;HPM_P1;HPM_P2
2022/11/03 05:22:35;;;;;;;1.73;1.23;;;;;;;4.21;100.00;100271.69;5109322;27;20384;-72
2022/11/03 05:25:22;;;;;;;2.13;1.50;;;;;;;4.19;100.00;100277.09;5109542;28;20040;-72
2022/11/03 05:27:47;;;;;;;2.80;1.33;;;;;;;4.23;100.00;100275.03;5087942;28;20105;-72
2022/11/03 05:30:14;;;;;;;3.08;1.48;;;;;;;4.21;100.00;100277.81;5088722;28;20040;-72
2022/11/03 05:32:39;;;;;;;2.45;2.15;;;;;;;4.29;100.00;100280.59;5106365;22;21027;-71
2022/11/03 05:35:19;;;;;;;2.10;1.77;;;;;;;4.30;100.00;100274.38;5109263;28;20444;-68
2022/11/03 05:37:45;;;;;;;2.78;1.80;;;;;;;4.34;100.00;100267.88;5109076;28;20042;-68
2022/11/03 05:40:16;;;;;;;4.22;2.30;;;;;;;4.34;100.00;100262.59;5108742;28;20036;-70
2022/11/03 05:42:45;;;;;;;2.60;1.88;;;;;;;4.40;100.00;100255.94;5113132;28;20043;-69
2022/11/03 05:45:23;;;;;;;2.78;1.55;;;;;;;4.45;100.00;100245.00;5129706;27;20398;-69
2022/11/03 05:47:52;;;;;;;4.45;1.48;;;;;;;4.41;100.00;100249.72;5129552;27;20035;-69
2022/11/03 05:50:20;;;;;;;2.65;1.60;;;;;;;4.45;100.00;100235.28;5129041;27;20035;-71
2022/11/03 05:52:48;;;;;;;1.75;1.65;;;;;;;4.47;100.00;100235.16;5129377;27;20035;-69
2022/11/03 05:55:25;;;;;;;2.15;1.40;;;;;;;4.47;100.00;100232.50;5129263;27;20040;-71
2022/11/03 05:57:52;;;;;;;2.85;1.75;;;;;;;4.43;100.00;100215.28;5129377;27;20044;-70
2022/11/03 06:00:28;;;;;;;1.77;1.50;;;;;;;4.38;100.00;100226.25;5128837;27;20027;-70
2022/11/03 06:02:55;;;;;;;2.95;1.35;;;;;;;4.38;100.00;100220.13;5129120;28;20092;-69
2022/11/03 06:05:22;;;;;;;2.63;2.05;;;;;;;4.42;100.00;100222.34;5128981;27;20050;-69
2022/11/03 06:07:49;;;;;;;2.00;1.27;;;;;;;4.40;100.00;100229.56;5129018;27;20036;-70
2022/11/03 06:10:24;;;;;;;4.80;2.05;;;;;;;4.44;100.00;100231.00;5128533;27;20050;-69
2022/11/03 06:12:49;;;;;;;1.70;1.42;;;;;;;4.41;100.00;100231.25;5128873;27;20046;-70
2022/11/03 06:15:45;;;;;;;2.90;1.58;;;;;;;4.47;100.00;100235.16;5127976;28;20031;-68
2022/11/03 06:18:15;;;;;;;2.53;1.60;;;;;;;4.45;100.00;100224.75;5100121;27;20492;-68
2022/11/03 06:20:41;;;;;;;2.10;1.60;;;;;;;4.45;100.00;100224.75;5108089;28;20036;-69
2022/11/03 06:23:14;;;;;;;4.03;1.77;;;;;;;4.54;100.00;100231.84;5108154;28;20487;-65
2022/11/03 06:25:42;;;;;;;4.40;1.70;;;;;;;4.59;100.00;100220.88;5108228;28;20117;-66
2022/11/03 06:28:13;;;;;;;1.73;1.60;;;;;;;4.55;100.00;100216.84;5108203;28;20047;-65
2022/11/03 06:30:41;;;;;;;5.45;2.08;;;;;;;4.63;100.00;100212.56;5122327;28;20035;-65
2022/11/03 06:33:15;;;;;;;2.88;1.70;;;;;;;4.63;100.00;100220.50;5119187;27;20031;-64
2022/11/03 06:35:42;;;;;;;2.72;1.95;;;;;;;4.66;100.00;100208.81;5114875;28;20023;-65
2022/11/03 06:38:26;;;;;;;3.33;2.17;;;;;;;4.70;100.00;100204.94;5114749;28;20078;-65
2022/11/03 06:40:52;;;;;;;1.40;1.30;;;;;;;4.89;100.00;100209.41;5114428;28;20108;-65
2022/11/03 06:43:30;;;;;;;3.63;1.80;;;;;;;4.93;100.00;100207.31;5114658;28;20040;-65
2022/11/03 06:46:01;;;;;;;7.32;2.00;;;;;;;4.94;100.00;100193.97;5114729;28;20042;-65
2022/11/03 06:48:28;;;;;;;3.80;2.05;;;;;;;4.98;100.00;100186.63;5114522;28;20032;-65
2022/11/03 06:50:55;;;;;;;2.38;1.80;;;;;;;5.03;100.00;100189.69;5114191;28;20115;-65
2022/11/03 06:53:25;;;;;;;4.53;2.00;;;;;;;5.04;100.00;100186.91;5114341;28;20038;-65
2022/11/03 06:55:50;;;;;;;3.90;1.95;;;;;;;5.06;100.00;100198.16;5114272;28;20488;-64
2022/11/03 06:58:27;;;;;;;3.20;1.77;;;;;;;5.13;100.00;100186.06;5114352;28;20035;-64
2022/11/03 07:00:56;;;;;;;4.10;1.95;;;;;;;5.11;100.00;100181.91;5114293;28;20119;-65
2022/11/03 07:03:33;;;;;;;4.28;1.75;;;;;;;5.10;100.00;100170.50;5114152;28;20042;-65
2022/11/03 07:06:12;;;;;;;1.50;1.40;;;;;;;5.22;100.00;100184.41;5114305;28;20067;-64
2022/11/03 07:08:44;;;;;;;3.30;1.73;;;;;;;5.24;100.00;100182.44;5114501;28;20369;-65
2022/11/03 07:11:18;;;;;;;1.80;1.38;;;;;;;5.27;100.00;100187.44;5113694;28;20040;-64
2022/11/03 07:13:45;;;;;;;3.08;1.65;;;;;;;5.30;100.00;100181.88;5113964;28;20051;-65
2022/11/03 07:16:13;;;;;;;3.40;1.83;;;;;;;5.39;100.00;100174.91;5114088;28;20080;-65
2022/11/03 07:18:43;;;;;;;1.88;1.45;;;;;;;5.45;100.00;100161.97;5113898;28;20119;-66
2022/11/03 07:21:29;;;;;;;3.55;1.58;;;;;;;5.50;100.00;100166.84;5113669;28;20037;-66
2022/11/03 07:23:58;;;;;;;2.92;1.67;;;;;;;5.56;100.00;100166.28;5113912;28;20040;-63
2022/11/03 07:26:25;;;;;;;1.33;1.20;;;;;;;5.64;100.00;100169.03;5113883;28;20035;-65
2022/11/03 07:28:50;;;;;;;2.33;1.77;;;;;;;5.67;100.00;100166.13;5113833;28;20441;-65
2022/11/03 07:31:21;;;;;;;2.13;1.60;;;;;;;5.73;100.00;100162.88;5113251;28;20047;-64
2022/11/03 07:33:47;;;;;;;1.88;1.40;;;;;;;5.77;100.00;100162.59;5113626;27;20042;-64
2022/11/03 07:36:21;;;;;;;2.85;2.00;;;;;;;5.86;100.00;100162.53;5113515;28;20559;-64
2022/11/03 07:38:49;;;;;;;2.47;2.25;;;;;;;5.95;100.00;100155.59;5113706;28;20054;-64
2022/11/03 07:41:30;;;;;;;3.20;2.13;;;;;;;6.03;100.00;100144.28;5113063;28;20031;-63
2022/11/03 07:43:58;;;;;;;3.25;2.45;;;;;;;6.07;100.00;100138.56;5112647;28;20035;-63
2022/11/03 07:46:24;;;;;;;4.03;2.90;;;;;;;6.15;100.00;100130.72;5113330;28;20035;-64
2022/11/03 07:48:58;;;;;;;6.03;4.47;;;;;;;6.21;100.00;100124.84;5113528;28;20035;-64
2022/11/03 07:51:36;;;;;;;5.55;4.35;;;;;;;6.30;100.00;100117.00;5112957;28;20039;-64
2022/11/03 07:54:08;;;;;;;5.57;3.17;;;;;;;6.38;100.00;100123.19;5111814;28;20036;-64
2022/11/03 07:56:47;;;;;;;4.65;3.28;;;;;;;6.45;100.00;100126.91;5113230;28;20118;-64
2022/11/03 07:59:17;;;;;;;3.45;2.20;;;;;;;6.53;100.00;100112.97;5113181;27;20070;-63
2022/11/03 08:01:48;;;;;;;2.05;1.45;;;;;;;6.64;100.00;100110.06;5112853;28;20084;-64
2022/11/03 08:04:19;;;;;;;1.63;1.30;;;;;;;6.71;100.00;100095.22;5112958;28;20130;-63
2022/11/03 08:06:45;;;;;;;2.42;1.40;;;;;;;6.82;100.00;100090.69;5112977;28;20092;-65
2022/11/03 08:09:11;;;;;;;3.20;1.48;;;;;;;6.90;100.00;100077.53;5112922;28;20039;-65
2022/11/03 08:11:36;;;;;;;1.30;1.20;;;;;;;6.97;100.00;100079.41;5112494;28;20050;-63
2022/11/03 08:14:02;;;;;;;5.55;1.65;;;;;;;7.06;100.00;100077.66;5112759;28;20120;-65
2022/11/03 08:16:27;;;;;;;2.15;1.33;;;;;;;7.15;100.00;100074.06;5111527;28;20041;-65
2022/11/03 08:18:53;;;;;;;1.73;1.42;;;;;;;7.25;100.00;100069.50;5112768;27;20058;-63
2022/11/03 08:21:18;;;;;;;2.20;1.27;;;;;;;7.33;100.00;100076.69;5112327;28;20031;-65
2022/11/03 08:23:43;;;;;;;2.13;1.50;;;;;;;7.43;100.00;100079.19;5112550;28;20040;-65
2022/11/03 08:26:09;;;;;;;1.90;1.67;;;;;;;7.49;100.00;100079.41;5112564;28;20043;-65
2022/11/03 08:28:34;;;;;;;2.75;1.40;;;;;;;7.59;100.00;100071.34;5112495;28;20035;-64
2022/11/03 08:31:05;;;;;;;1.77;1.38;;;;;;;7.68;100.00;100070.41;5112150;28;20094;-63
2022/11/03 08:33:32;;;;;;;1.77;1.45;;;;;;;7.80;100.00;100071.78;5112205;28;20035;-65
2022/11/03 08:35:58;;;;;;;1.35;1.17;;;;;;;7.91;100.00;100072.50;5112378;28;20114;-65
2022/11/03 08:38:23;;;;;;;3.28;1.65;;;;;;;8.04;100.00;100079.00;5112310;28;20503;-65
2022/11/03 08:40:48;;;;;;;2.00;1.80;;;;;;;8.15;100.00;100075.22;5112048;28;20036;-65
2022/11/03 08:43:14;;;;;;;2.13;1.52;;;;;;;8.28;100.00;100080.91;5112213;28;20126;-65
2022/11/03 08:45:39;;;;;;;2.20;1.50;;;;;;;8.43;100.00;100068.69;5112321;28;20046;-65
2022/11/03 08:48:05;;;;;;;2.22;1.70;;;;;;;8.54;100.00;100061.38;5111007;28;20492;-63
2022/11/03 08:50:30;;;;;;;2.33;1.80;;;;;;;8.59;100.00;100046.63;5111786;28;20038;-64
2022/11/03 08:52:56;;;;;;;3.45;2.10;;;;;;;8.79;100.00;100062.22;5112050;28;20071;-64
2022/11/03 08:55:21;;;;;;;4.03;2.20;;;;;;;8.91;100.00;100061.72;5111940;28;20040;-65
2022/11/03 08:57:47;;;;;;;4.45;2.15;;;;;;;9.02;100.00;100057.91;5110970;28;20044;-64
2022/11/03 09:00:13;;;;;;;3.58;2.40;;;;;;;9.11;100.00;100059.56;5111840;28;20043;-64
2022/11/03 09:02:39;;;;;;;3.90;2.53;;;;;;;9.13;100.00;100051.44;5111942;28;20036;-64
2022/11/03 09:05:06;;;;;;;8.77;3.05;;;;;;;9.26;100.00;100049.09;5111928;28;20058;-65
2022/11/03 09:07:32;;;;;;;3.97;2.85;;;;;;;9.38;100.00;100053.00;5112033;28;20138;-66
2022/11/03 09:09:57;;;;;;;4.47;2.33;;;;;;;9.51;100.00;100047.16;5111898;28;20118;-65
2022/11/03 09:12:22;;;;;;;2.10;1.88;;;;;;;9.59;100.00;100041.00;5111645;28;20036;-65
2022/11/03 09:14:48;;;;;;;1.92;1.63;;;;;;;9.69;100.00;100044.28;5111957;28;20161;-65
2022/11/03 09:17:13;;;;;;;4.95;2.10;;;;;;;9.62;100.00;100030.84;5112061;28;20417;-66
2022/11/03 09:19:38;;;;;;;3.08;2.20;;;;;;;9.72;100.00;100028.81;5110586;28;20048;-66
2022/11/03 09:22:04;;;;;;;7.75;2.33;;;;;;;9.91;100.00;100035.56;5111584;28;20032;-66
2022/11/03 09:24:29;;;;;;;2.50;2.08;;;;;;;9.93;100.00;100024.72;5111731;28;20047;-65
2022/11/03 09:26:55;;;;;;;2.40;2.08;;;;;;;10.15;100.00;100012.44;5111805;28;20044;-66
2022/11/03 09:29:20;;;;;;;2.17;1.88;;;;;;;10.26;100.00;100009.44;5111804;28;20039;-66
2022/11/03 09:31:46;;;;;;;4.10;2.20;;;;;;;10.27;100.00;100005.75;5111441;28;20039;-66
2022/11/03 09:34:12;;;;;;;4.55;2.05;;;;;;;10.38;100.00;100001.88;5111531;28;20557;-65
2022/11/03 09:36:38;;;;;;;3.47;2.05;;;;;;;10.40;100.00;100000.66;5111689;28;20544;-66
2022/11/03 09:39:04;;;;;;;5.18;2.33;;;;;;;10.38;100.00;100005.34;5111752;28;20066;-66
2022/11/03 09:41:30;;;;;;;5.18;2.05;;;;;;;10.43;100.00;99999.47;5111380;28;20110;-66
2022/11/03 09:43:57;;;;;;;2.90;1.80;;;;;;;10.44;100.00;99999.31;5111599;28;20103;-66
2022/11/03 09:46:24;;;;;;;5.95;1.70;;;;;;;10.40;100.00;99984.69;5111633;28;20063;-66
2022/11/03 09:48:49;;;;;;;3.95;2.58;;;;;;;10.40;100.00;99981.19;5111501;28;20095;-66
2022/11/03 09:51:19;;;;;;;2.78;2.10;;;;;;;10.36;100.00;99977.22;5111257;28;20047;-65
2022/11/03 09:53:45;;;;;;;4.25;2.10;;;;;;;10.31;100.00;99988.44;5111512;28;20047;-65
2022/11/03 09:56:11;;;;;;;4.85;2.33;;;;;;;10.32;100.00;99984.75;5111527;28;20031;-65
2022/11/03 09:58:36;;;;;;;5.78;1.80;;;;;;;10.29;100.00;99985.94;5110151;28;20122;-65
2022/11/03 10:01:02;;;;;;;2.40;2.20;;;;;;;10.35;100.00;99979.06;5111093;28;20392;-65
2022/11/03 10:03:29;;;;;;;4.55;2.35;;;;;;;10.39;100.00;99980.38;5110005;28;20043;-64
2022/11/03 10:05:54;;;;;;;3.70;2.03;;;;;;;10.45;100.00;99970.84;5111445;28;20040;-65
2022/11/03 10:08:24;;;;;;;3.90;2.15;;;;;;;10.48;100.00;99963.31;5113521;28;20043;-66
2022/11/03 10:10:50;;;;;;;3.92;2.35;;;;;;;10.56;100.00;99968.59;5113680;28;20515;-65
2022/11/03 10:13:30;;;;;;;3.00;2.38;;;;;;;10.64;100.00;99959.69;5115196;28;20031;-65
2022/11/03 10:15:57;;;;;;;3.53;2.33;;;;;;;10.55;100.00;99950.94;5115222;28;20070;-65
2022/11/03 10:18:23;;;;;;;4.88;1.88;;;;;;;10.65;100.00;99948.03;5114983;27;20043;-65
2022/11/03 10:20:48;;;;;;;4.03;2.05;;;;;;;10.70;100.00;99944.84;5114755;28;20081;-66
2022/11/03 10:23:13;;;;;;;4.00;2.33;;;;;;;10.73;100.00;99949.78;5114972;28;20043;-65
2022/11/03 10:25:41;;;;;;;4.50;2.25;;;;;;;10.80;100.00;99940.88;5114877;28;20035;-64
2022/11/03 10:28:25;;;;;;;4.15;2.53;;;;;;;10.95;100.00;99935.56;5114790;28;20027;-65
2022/11/03 10:31:05;;;;;;;2.88;2.15;;;;;;;11.27;100.00;99937.03;5114603;28;20043;-66
2022/11/03 10:34:00;;;;;;;4.78;2.50;;;;;;;11.50;100.00;99926.25;5113360;28;20043;-65
2022/11/03 10:36:28;;;;;;;5.70;2.50;;;;;;;11.66;100.00;99915.34;5111571;28;20039;-66
2022/11/03 10:38:54;;;;;;;4.55;2.08;;;;;;;11.66;100.00;99902.00;5114651;28;20024;-65
2022/11/03 10:41:25;;;;;;;4.32;2.30;;;;;;;11.58;100.00;99899.47;5114335;28;20031;-64
2022/11/03 10:44:13;;;;;;;3.58;2.20;;;;;;;11.75;100.00;99893.91;5114480;28;20036;-65
2022/11/03 10:46:39;;;;;;;2.17;1.90;;;;;;;11.80;99.70;99881.66;5114615;28;20381;-66
2022/11/03 10:49:14;;;;;;;4.07;1.92;;;;;;;11.87;97.12;99889.75;5114377;28;20490;-65
2022/11/03 10:51:46;;;;;;;5.38;2.30;;;;;;;11.90;96.17;99873.34;5113986;28;20035;-64
2022/11/03 10:54:14;;;;;;;4.55;1.67;;;;;;;11.96;96.59;99864.56;5114329;28;20043;-65
2022/11/03 10:56:41;;;;;;;4.40;2.08;;;;;;;11.77;97.98;99871.34;5114322;28;20464;-65
2022/11/03 10:59:15;;;;;;;2.67;2.15;;;;;;;11.78;98.90;99861.50;5114382;27;20485;-65
2022/11/03 11:01:40;;;;;;;3.15;1.73;;;;;;;11.71;97.05;99853.41;5113935;28;20028;-64
2022/11/03 11:04:06;;;;;;;3.38;1.88;;;;;;;11.77;96.33;99843.84;5114284;28;20035;-64
2022/11/03 11:06:32;;;;;;;2.03;1.67;;;;;;;11.81;93.65;99840.63;5114124;28;20067;-65
2022/11/03 11:09:04;;;;;;;5.43;1.98;;;;;;;11.98;93.95;99827.84;5113111;28;20139;-65
2022/11/03 11:11:30;;;;;;;5.20;2.00;;;;;;;12.06;94.51;99830.38;5113778;28;20046;-64
2022/11/03 11:14:22;;;;;;;2.42;1.65;;;;;;;12.18;92.08;99828.81;5114068;28;20036;-63
2022/11/03 11:16:56;;;;;;;4.63;2.45;;;;;;;12.43;90.68;99823.03;5113984;28;20039;-65
2022/11/03 11:19:23;;;;;;;3.72;2.03;;;;;;;12.43;90.68;99817.69;5110612;28;20039;-65
2022/11/03 11:21:59;;;;;;;5.68;1.70;;;;;;;12.49;91.60;99820.41;5102044;28;20132;-65
2022/11/03 11:24:43;;;;;;;4.00;1.88;;;;;;;12.82;89.50;99819.78;5099827;28;20043;-65
2022/11/03 11:27:30;;;;;;;2.42;1.70;;;;;;;12.81;89.61;99817.31;5093836;28;20389;-65
2022/11/03 11:29:57;;;;;;;3.88;2.03;;;;;;;12.88;89.90;99810.97;5093326;28;20488;-64
2022/11/03 11:32:41;;;;;;;3.20;1.80;;;;;;;12.88;89.12;99805.63;5115245;22;20024;-59
2022/11/03 11:35:22;;;;;;;4.05;1.88;;;;;;;12.90;89.10;99803.56;5052326;28;20473;-60
2022/11/03 11:37:48;;;;;;;4.80;1.98;;;;;;;12.94;89.27;99782.63;5053110;28;20087;-60
2022/11/03 11:40:47;;;;;;;4.22;2.10;;;;;;;12.90;88.98;99774.16;5052204;28;20064;-60
2022/11/03 11:43:19;;;;;;;4.35;2.17;;;;;;;12.84;90.77;99768.78;5052824;28;20422;-61
2022/11/03 11:46:21;;;;;;;5.03;1.83;;;;;;;12.80;89.94;99762.22;5053591;28;20401;-61
2022/11/03 11:48:56;;;;;;;4.75;1.67;;;;;;;12.62;89.93;99762.75;5052880;28;20040;-60
2022/11/03 11:51:22;;;;;;;3.25;1.75;;;;;;;12.55;91.51;99768.06;5052538;28;20555;-61
2022/11/03 11:53:50;;;;;;;3.03;1.75;;;;;;;12.46;91.19;99771.91;5052731;28;20033;-62
2022/11/03 11:56:17;;;;;;;4.68;1.50;;;;;;;12.46;93.02;99761.22;5052990;28;20397;-62
2022/11/03 11:58:46;;;;;;;2.72;1.85;;;;;;;12.48;92.86;99748.50;5052672;28;20033;-62
2022/11/03 12:01:31;;;;;;;2.10;1.73;;;;;;;12.45;94.00;99739.03;5052523;28;20025;-62
2022/11/03 12:04:04;;;;;;;2.53;1.50;;;;;;;12.44;93.69;99732.03;5052735;28;20393;-59
2022/11/03 12:06:35;;;;;;;3.60;1.55;;;;;;;12.37;93.09;99723.16;5052981;28;20064;-60
2022/11/03 12:09:04;;;;;;;2.38;1.48;;;;;;;12.37;94.23;99722.34;5052784;28;20037;-63
2022/11/03 12:11:59;;;;;;;5.38;1.55;;;;;;;12.37;94.72;99712.47;5052360;28;20071;-62
2022/11/03 12:14:28;;;;;;;5.82;2.65;;;;;;;12.41;93.84;99707.56;5039563;28;20072;-63
2022/11/03 12:16:54;;;;;;;3.63;1.50;;;;;;;12.41;95.77;99703.06;5052895;28;20052;-61
2022/11/03 12:19:40;;;;;;;2.08;1.40;;;;;;;12.43;94.84;99684.97;5052558;28;20045;-61
2022/11/03 12:22:10;;;;;;;3.95;2.05;;;;;;;12.35;95.94;99687.81;5052092;28;20035;-61
2022/11/03 12:24:37;;;;;;;5.07;2.30;;;;;;;12.40;96.51;99687.22;5052546;28;20025;-62
2022/11/03 12:27:17;;;;;;;6.30;2.60;;;;;;;12.34;94.79;99686.19;5052389;28;20033;-63
2022/11/03 12:29:42;;;;;;;3.58;2.20;;;;;;;12.39;96.68;99677.56;5052261;28;20963;-60
2022/11/03 12:32:08;;;;;;;4.78;2.00;;;;;;;12.36;94.54;99673.44;5051463;28;20131;-61
2022/11/03 12:34:33;;;;;;;5.88;2.53;;;;;;;12.36;93.59;99664.59;5052106;28;20040;-62
2022/11/03 12:36:58;;;;;;;3.58;2.15;;;;;;;12.39;93.20;99664.22;5052114;28;20379;-63
2022/11/03 12:39:24;;;;;;;3.20;2.33;;;;;;;12.40;92.93;99663.19;5052139;28;20044;-61
2022/11/03 12:41:49;;;;;;;5.75;2.60;;;;;;;12.40;93.09;99652.50;5051782;28;20037;-62
2022/11/03 12:44:15;;;;;;;3.47;2.65;;;;;;;12.33;93.59;99652.47;5051919;28;20056;-61
2022/11/03 12:46:40;;;;;;;6.35;2.50;;;;;;;12.31;93.70;99643.00;5052101;28;20740;-61
2022/11/03 12:49:05;;;;;;;3.88;2.33;;;;;;;12.37;94.21;99636.88;5052086;28;20087;-62
2022/11/03 12:51:31;;;;;;;6.70;2.20;;;;;;;12.35;94.18;99628.25;5051510;28;20102;-62
2022/11/03 12:53:56;;;;;;;5.72;2.65;;;;;;;12.38;94.03;99619.81;5051704;28;20095;-60
2022/11/03 12:56:22;;;;;;;5.35;2.45;;;;;;;12.39;93.79;99614.28;5051830;28;20036;-61
2022/11/03 12:58:47;;;;;;;5.53;2.45;;;;;;;12.39;94.29;99592.94;5051722;28;20509;-63
2022/11/03 13:01:13;;;;;;;3.13;2.17;;;;;;;12.37;94.73;99594.13;5050363;28;20029;-62
2022/11/03 13:03:39;;;;;;;3.75;1.90;;;;;;;12.38;95.34;99583.25;5051610;28;20438;-63
2022/11/03 13:06:08;;;;;;;4.60;2.03;;;;;;;12.39;95.36;99571.56;5051516;28;20047;-62
2022/11/03 13:08:35;;;;;;;3.60;1.90;;;;;;;12.41;95.34;99571.34;5051751;28;20048;-63
2022/11/03 13:11:00;;;;;;;3.20;2.00;;;;;;;12.40;95.52;99557.19;5051161;28;20500;-61
2022/11/03 13:13:25;;;;;;;4.22;3.00;;;;;;;12.45;94.82;99548.53;5051384;28;20037;-64
2022/11/03 13:15:54;;;;;;;6.35;2.42;;;;;;;12.45;94.82;99537.84;5051478;28;20043;-61
2022/11/03 13:18:21;;;;;;;4.80;2.03;;;;;;;12.47;95.19;99522.47;5051473;28;20049;-63
2022/11/03 13:20:47;;;;;;;6.35;2.17;;;;;;;12.49;95.36;99525.75;5051198;28;20033;-63
2022/11/03 13:23:12;;;;;;;6.72;2.25;;;;;;;12.50;95.20;99522.06;5051389;28;20075;-63
2022/11/03 13:25:38;;;;;;;7.50;2.40;;;;;;;12.41;96.40;99504.59;5051498;28;20041;-63
2022/11/03 13:28:04;;;;;;;4.80;2.53;;;;;;;12.42;96.72;99503.56;5051349;28;20064;-63
2022/11/03 13:30:32;;;;;;;2.67;1.75;;;;;;;12.52;95.90;99504.00;5051174;28;20064;-62
2022/11/03 13:32:58;;;;;;;3.53;2.00;;;;;;;12.55;96.32;99487.53;5051347;28;20128;-62
2022/11/03 13:35:23;;;;;;;3.03;2.10;;;;;;;12.52;96.64;99479.94;5051384;28;20112;-62
2022/11/03 13:37:49;;;;;;;5.43;2.22;;;;;;;12.56;96.37;99469.66;5051419;28;20041;-64
2022/11/03 13:40:15;;;;;;;4.78;2.30;;;;;;;12.56;96.25;99465.13;5033348;28;20067;-63
2022/11/03 13:42:40;;;;;;;3.42;2.22;;;;;;;12.46;97.28;99470.91;5052338;28;20028;-63
2022/11/03 13:45:07;;;;;;;4.18;2.15;;;;;;;12.49;97.32;99467.00;5055301;28;20389;-63
2022/11/03 13:47:33;;;;;;;2.45;1.75;;;;;;;12.50;97.94;99468.63;5055359;28;20032;-64
2022/11/03 13:49:59;;;;;;;3.63;1.80;;;;;;;12.42;98.16;99476.84;5055081;28;20447;-63
2022/11/03 13:52:26;;;;;;;5.10;1.85;;;;;;;12.42;98.50;99468.84;5054827;28;20044;-63
2022/11/03 13:54:51;;;;;;;4.10;2.33;;;;;;;12.44;98.28;99462.25;5055212;28;20029;-63
2022/11/03 13:57:17;;;;;;;4.53;1.85;;;;;;;12.43;98.90;99459.78;5037135;28;20048;-60
2022/11/03 13:59:43;;;;;;;5.55;2.00;;;;;;;12.47;98.74;99461.84;5054967;28;20036;-63
2022/11/03 14:02:09;;;;;;;4.25;2.22;;;;;;;12.44;99.22;99456.09;5054580;28;20083;-62
2022/11/03 14:04:34;;;;;;;3.58;1.98;;;;;;;12.49;99.08;99438.44;5054813;28;20061;-61
2022/11/03 14:07:00;;;;;;;2.22;1.65;;;;;;;12.41;99.43;99425.28;5036976;28;20154;-63
2022/11/03 14:09:26;;;;;;;2.72;1.80;;;;;;;12.45;99.66;99401.63;5054833;28;20045;-62
2022/11/03 14:14:35;;;;;;;4.57;2.13;;;;;;;12.56;98.80;99400.22;5054784;28;20068;-63
2022/11/03 14:17:00;;;;;;;3.30;1.73;;;;;;;12.57;98.91;99389.31;5053424;28;20110;-63
2022/11/03 14:19:26;;;;;;;4.95;2.25;;;;;;;12.61;98.84;99382.53;5054774;28;20132;-63
2022/11/03 14:21:51;;;;;;;4.97;2.10;;;;;;;12.64;98.81;99379.44;5054229;28;20068;-61
2022/11/03 14:24:17;;;;;;;2.90;1.92;;;;;;;12.63;99.71;99385.81;5036771;28;20040;-62
2022/11/03 14:26:42;;;;;;;2.85;2.20;;;;;;;12.65;100.00;99381.09;5036867;28;20041;-62
2022/11/03 14:29:08;;;;;;;2.33;1.77;;;;;;;12.53;100.00;99377.41;5054480;28;20433;-63
2022/11/03 14:31:33;;;;;;;4.38;2.30;;;;;;;12.53;100.00;99364.06;5054034;28;20036;-63
2022/11/03 14:33:59;;;;;;;6.25;1.95;;;;;;;12.57;100.00;99364.44;5054574;28;20048;-63
2022/11/03 14:36:25;;;;;;;3.50;2.00;;;;;;;12.54;100.00;99354.19;5054216;28;20040;-63
2022/11/03 14:38:50;;;;;;;5.07;2.13;;;;;;;12.52;100.00;99345.53;5054639;28;20357;-63
2022/11/03 14:44:02;;;;;;;4.30;2.00;;;;;;;12.57;100.00;99348.41;5054203;28;20065;-63
2022/11/03 14:46:27;;;;;;;5.22;2.28;;;;;;;12.53;100.00;99333.84;5054336;28;20043;-63
2022/11/03 14:48:53;;;;;;;5.93;2.45;;;;;;;12.57;100.00;99343.91;5054122;28;20128;-63
2022/11/03 14:51:19;;;;;;;4.55;2.50;;;;;;;12.59;100.00;99346.38;5053757;28;20041;-63
2022/11/03 14:53:44;;;;;;;3.30;2.05;;;;;;;12.63;100.00;99336.91;5053684;28;20033;-63
2022/11/03 14:56:10;;;;;;;3.22;2.38;;;;;;;12.65;100.00;99330.34;5054251;28;20053;-63
2022/11/03 14:58:36;;;;;;;3.10;2.25;;;;;;;12.63;100.00;99318.19;5054111;28;20037;-63
2022/11/03 15:01:02;;;;;;;4.20;2.35;;;;;;;12.61;100.00;99307.72;5053514;28;20029;-63
2022/11/03 15:03:27;;;;;;;5.50;2.45;;;;;;;12.63;100.00;99312.84;5053822;28;20037;-63
2022/11/03 15:05:54;;;;;;;6.50;2.90;;;;;;;12.56;100.00;99306.72;5053767;28;20163;-63
2022/11/03 15:08:21;;;;;;;4.80;2.05;;;;;;;12.52;100.00;99292.97;5053838;28;20131;-63
2022/11/03 15:10:47;;;;;;;5.18;2.08;;;;;;;12.55;100.00;99292.53;5053316;28;20041;-62
2022/11/03 15:13:12;;;;;;;4.68;2.20;;;;;;;12.47;100.00;99269.53;5053549;28;20131;-63
2022/11/03 15:15:40;;;;;;;5.03;1.88;;;;;;;12.47;100.00;99279.41;5053613;28;20111;-63
2022/11/03 15:18:06;;;;;;;2.60;1.63;;;;;;;12.42;100.00;99272.00;5053788;28;20726;-63
2022/11/03 15:20:34;;;;;;;4.72;2.10;;;;;;;12.41;100.00;99267.72;5053269;28;20064;-63
2022/11/03 15:23:00;;;;;;;;;;;;;;;12.41;100.00;99280.25;5053982;28;20040;-63
2022/11/03 15:25:25;;;;;;;5.68;2.13;;;;;;;12.36;100.00;99274.69;5053406;28;19916;-62
2022/11/03 15:27:50;;;;;;;2.88;2.42;;;;;;;12.38;100.00;99272.63;5052451;28;20044;-63
2022/11/03 15:30:16;;;;;;;3.83;2.42;;;;;;;12.38;100.00;99267.28;5042949;28;20041;-62
2022/11/03 15:32:41;;;;;;;3.33;2.20;;;;;;;12.33;100.00;99264.44;5041577;28;20059;-62
2022/11/03 15:35:07;;;;;;;5.85;2.45;;;;;;;12.34;100.00;99258.06;5040388;28;20567;-61
2022/11/03 15:37:33;;;;;;;3.72;2.20;;;;;;;12.32;100.00;99246.75;5042951;28;20086;-63
2022/11/03 15:39:58;;;;;;;5.22;2.33;;;;;;;12.25;100.00;99244.09;5050358;28;20041;-62
2022/11/03 15:42:24;;;;;;;7.03;2.47;;;;;;;12.25;100.00;99245.94;5052832;28;20037;-63
2022/11/03 15:44:49;;;;;;;5.00;2.35;;;;;;;12.22;100.00;99240.00;5052884;28;20112;-63
2022/11/03 15:47:15;;;;;;;5.57;2.03;;;;;;;12.23;100.00;99246.16;5035071;28;20041;-63
2022/11/03 15:49:40;;;;;;;4.90;2.53;;;;;;;12.18;100.00;99237.94;5052973;28;20111;-62
2022/11/03 15:52:05;;;;;;;10.38;2.63;;;;;;;12.13;100.00;99246.59;5052527;28;20051;-61
2022/11/03 15:54:31;;;;;;;7.53;2.60;;;;;;;12.15;100.00;99235.72;5052785;28;20033;-63
2022/11/03 15:56:56;;;;;;;2.92;2.00;;;;;;;12.12;100.00;99233.44;5052722;28;20037;-61
2022/11/03 15:59:21;;;;;;;4.90;2.15;;;;;;;12.02;100.00;99236.56;5052829;28;20051;-63
2022/11/03 16:01:47;;;;;;;7.75;4.00;;;;;;;12.05;100.00;99233.44;5052477;28;20094;-63
2022/11/03 16:04:15;;;;;;;5.32;2.70;;;;;;;12.02;100.00;99231.22;5052499;28;20389;-62
2022/11/03 16:06:40;;;;;;;5.00;3.13;;;;;;;12.04;100.00;99217.66;5051807;28;20037;-62
2022/11/03 16:09:05;;;;;;;5.00;3.08;;;;;;;12.01;100.00;99215.41;5052814;28;20512;-63
2022/11/03 16:11:31;;;;;;;3.72;1.92;;;;;;;11.97;100.00;99230.19;5052182;28;20072;-63
2022/11/03 16:13:56;;;;;;;4.60;2.45;;;;;;;11.99;100.00;99238.78;5052448;28;20060;-70
2022/11/03 16:16:22;;;;;;;3.22;2.08;;;;;;;11.91;100.00;99240.66;5052607;28;20040;-69
2022/11/03 16:18:47;;;;;;;5.60;2.53;;;;;;;11.91;100.00;99253.19;5052426;28;20033;-70
2022/11/03 16:21:12;;;;;;;5.40;2.45;;;;;;;11.85;100.00;99257.47;5052095;28;20409;-70
2022/11/03 16:23:38;;;;;;;6.43;2.67;;;;;;;11.82;100.00;99265.91;5052229;28;20509;-70
2022/11/03 16:26:04;;;;;;;4.22;2.58;;;;;;;11.78;100.00;99277.16;5052296;28;20043;-70
2022/11/03 16:28:30;;;;;;;5.00;2.33;;;;;;;11.78;100.00;99285.16;5052143;28;20048;-70
2022/11/03 16:30:55;;;;;;;7.72;2.88;;;;;;;11.73;100.00;99287.59;5051848;28;20033;-70
2022/11/03 16:33:21;;;;;;;4.05;2.03;;;;;;;11.76;100.00;99277.38;5051917;28;20417;-70
2022/11/03 16:35:47;;;;;;;4.50;2.92;;;;;;;11.67;100.00;99278.56;5052191;28;20041;-69
2022/11/03 16:38:14;;;;;;;4.40;3.00;;;;;;;11.67;100.00;99267.91;5034203;28;20045;-70
2022/11/03 16:40:40;;;;;;;5.20;3.10;;;;;;;11.60;100.00;99272.41;5052243;28;20052;-70
2022/11/03 16:43:05;;;;;;;5.47;3.78;;;;;;;11.55;100.00;99266.88;5051937;28;20051;-70
2022/11/03 16:45:30;;;;;;;6.43;3.70;;;;;;;11.48;100.00;99258.06;5052025;28;20060;-70
2022/11/03 16:47:56;;;;;;;8.20;3.60;;;;;;;11.45;100.00;99251.25;5052008;28;20500;-70
2022/11/03 16:50:21;;;;;;;7.18;3.53;;;;;;;11.37;100.00;99246.94;5051586;28;20048;-70
2022/11/03 16:52:48;;;;;;;4.78;2.88;;;;;;;11.40;100.00;99230.53;5051814;28;20037;-70
2022/11/03 16:55:15;;;;;;;7.18;3.03;;;;;;;11.32;100.00;99221.91;5051878;28;20117;-70
2022/11/03 16:57:41;;;;;;;9.00;3.70;;;;;;;11.29;100.00;99201.00;5051731;28;20047;-70
2022/11/03 17:00:11;;;;;;;7.35;3.17;;;;;;;11.19;100.00;99198.72;5051603;28;20510;-70